Main page
METAR-TAF:

METAR-TAF

Airports :

Córdoba, Spain

Córdoba Airport

latitude: 37-51N, longitude: 004-51W, elevation: 90 m

Current weather observation

The report was made 25 minutes ago, at 23:30 UTC
Calm wind
Temperature 7°C
Humidity 81%
Pressure 1019 hPa
Visibility 10 km or more
no clouds below 1500 m and no cumulonimbus

METAR: LEBA 182330Z AUTO 00000KT CAVOK 07/04 Q1019

Time: 00:55 (23:55 UTC)

Forecast

The report was made 9 hours and 55 minutes ago, at 14:00 UTC
Forecast valid from 18 at 15 UTC to 18 at 24 UTC
Wind 6 kt from the East
Visibility 10 km or more
Few clouds at a height of 4000 ft

TAF: LEBA 181400Z 1815/1824 08006KT 9999 FEW040

Weather observations and forecasts of more than 4000 airports (METAR and TAF reports).

The available stations are represented by yellow and red dots on the map.

Hover mouse over dot to see the name of the station.

Then click to see weather observations and forecasts.

To change the map : click on the green buttons with a black cross to zoom in, on the green button with a dash to zoom out, or on the green arrows for adjacent maps.


METAR-TAF: